Time;durP1;ratioP1;P1;durP2;ratioP2;P2;SDS_P1;SDS_P2;PMS_P1;PMS_P2;Temp;Humidity;BMP_temperature;BMP_pressure;BME280_temperature;BME280_humidity;BME280_pressure;Samples;Min_cycle;Max_cycle;Signal;HPM_P1;HPM_P2
2021/03/11 00:01:02;;;;;;;42.17;21.73;;;;;;;-4.60;62.93;101344.44;1786078;80;21020;-55
2021/03/11 00:03:29;;;;;;;33.02;19.57;;;;;;;-4.62;62.86;101350.94;1786059;80;21041;-55
2021/03/11 00:05:59;;;;;;;28.23;20.68;;;;;;;-4.64;62.94;101351.09;1785863;80;21248;-55
2021/03/11 00:11:08;;;;;;;32.55;20.60;;;;;;;-4.68;63.38;101344.34;1845446;76;28415;-53
2021/03/11 00:13:36;;;;;;;29.67;20.50;;;;;;;-4.76;63.64;101350.95;1815585;79;21010;-53
2021/03/11 00:16:12;;;;;;;27.35;18.87;;;;;;;-4.74;63.70;101348.98;1815069;79;21180;-53
2021/03/11 00:18:37;;;;;;;32.48;18.42;;;;;;;-4.74;63.90;101348.98;1815040;78;21045;-53
2021/03/11 00:21:13;;;;;;;32.03;19.48;;;;;;;-4.80;64.10;101338.36;1815257;79;20997;-53
2021/03/11 00:23:38;;;;;;;34.10;19.82;;;;;;;-4.80;64.22;101338.83;1814185;79;21496;-54
2021/03/11 00:26:12;;;;;;;37.63;20.02;;;;;;;-4.81;64.26;101331.30;1815083;79;20993;-54
2021/03/11 00:28:42;;;;;;;35.30;19.57;;;;;;;-4.77;64.34;101338.05;1834851;77;21306;-54
2021/03/11 00:31:16;;;;;;;31.30;19.52;;;;;;;-4.78;64.44;101332.84;1858219;77;21067;-53
2021/03/11 00:33:44;;;;;;;33.28;19.87;;;;;;;-4.79;64.58;101337.84;1858246;77;21006;-53
2021/03/11 00:36:17;;;;;;;34.98;19.17;;;;;;;-4.79;64.64;101335.16;1858112;76;21101;-53
2021/03/11 00:38:49;;;;;;;29.57;19.15;;;;;;;-4.76;64.70;101333.52;1845113;76;21033;-53
2021/03/11 00:41:19;;;;;;;47.75;23.05;;;;;;;-4.69;64.61;101338.63;1818139;78;21575;-53
2021/03/11 00:43:50;;;;;;;35.17;21.68;;;;;;;-4.65;64.48;101334.66;1818201;78;20992;-53
2021/03/11 00:46:21;;;;;;;37.88;24.65;;;;;;;-4.62;64.44;101338.37;1817825;78;20960;-54
2021/03/11 00:48:52;;;;;;;33.08;22.27;;;;;;;-4.58;64.40;101340.27;1818063;78;21044;-53
2021/03/11 00:51:23;;;;;;;34.13;23.83;;;;;;;-4.56;64.40;101339.13;1818301;78;21004;-53
2021/03/11 00:53:54;;;;;;;34.13;20.05;;;;;;;-4.54;64.34;101336.28;1818208;78;22105;-54
2021/03/11 00:56:22;;;;;;;29.12;21.17;;;;;;;-4.51;64.29;101333.30;1818812;78;21020;-54
2021/03/11 00:58:50;;;;;;;33.38;21.05;;;;;;;-4.48;64.29;101329.47;1818543;78;20992;-54
2021/03/11 01:01:23;;;;;;;32.05;20.02;;;;;;;-4.53;64.33;101321.86;1818598;78;20996;-54
2021/03/11 01:03:52;;;;;;;41.55;22.85;;;;;;;-4.58;64.50;101316.97;1815101;78;21040;-54
2021/03/11 01:06:20;;;;;;;44.63;22.75;;;;;;;-4.63;64.55;101314.39;1786144;80;21201;-54
2021/03/11 01:08:50;;;;;;;34.67;21.62;;;;;;;-4.67;64.73;101318.37;1785930;80;21020;-53
2021/03/11 01:11:20;;;;;;;40.73;23.12;;;;;;;-4.74;64.99;101311.45;1797491;79;21090;-53
2021/03/11 01:16:27;;;;;;;48.02;31.17;;;;;;;-4.75;65.39;101309.75;1845231;76;29146;-54
2021/03/11 01:19:00;;;;;;;41.70;27.02;;;;;;;-4.81;65.47;101310.36;1815357;79;21018;-54
2021/03/11 01:21:27;;;;;;;45.70;28.23;;;;;;;-4.80;65.55;101310.21;1815085;79;21289;-53
2021/03/11 01:23:57;;;;;;;43.08;27.45;;;;;;;-4.84;65.65;101299.92;1815143;79;20998;-53
2021/03/11 01:26:25;;;;;;;53.87;34.73;;;;;;;-4.87;65.79;101313.98;1815147;79;20978;-54
2021/03/11 01:28:53;;;;;;;52.55;33.30;;;;;;;-4.92;65.96;101309.55;1815196;79;21501;-53
2021/03/11 01:31:22;;;;;;;52.50;30.80;;;;;;;-4.95;66.08;101308.52;1815406;79;21033;-54
2021/03/11 01:33:53;;;;;;;45.65;28.60;;;;;;;-4.98;66.34;101311.50;1815177;78;21359;-53
2021/03/11 01:36:26;;;;;;;44.42;24.85;;;;;;;-5.04;66.43;101300.05;1814955;79;21026;-53
2021/03/11 01:38:57;;;;;;;39.15;22.42;;;;;;;-5.05;66.54;101314.44;1814950;79;20935;-53
2021/03/11 01:41:29;;;;;;;43.28;26.00;;;;;;;-5.09;66.64;101310.36;1815079;79;21018;-54
2021/03/11 01:44:00;;;;;;;48.73;27.20;;;;;;;-5.10;66.76;101316.70;1815070;77;20942;-54
2021/03/11 01:46:28;;;;;;;51.42;35.73;;;;;;;-5.08;66.76;101314.73;1815509;79;21258;-53
2021/03/11 01:49:01;;;;;;;57.15;29.77;;;;;;;-5.03;66.74;101313.77;1815439;78;21588;-53
2021/03/11 01:51:29;;;;;;;44.60;28.15;;;;;;;-5.02;66.65;101313.30;1815216;79;21643;-54
2021/03/11 01:53:59;;;;;;;54.05;31.77;;;;;;;-5.06;66.75;101316.28;1814805;79;21025;-54
2021/03/11 01:56:31;;;;;;;53.05;32.83;;;;;;;-5.13;66.95;101323.23;1815039;79;20949;-54
2021/03/11 01:59:01;;;;;;;63.98;35.50;;;;;;;-5.18;67.19;101319.30;1814724;78;21352;-53
2021/03/11 02:01:37;;;;;;;52.55;31.15;;;;;;;-5.22;67.36;101324.93;1814276;79;20982;-53
2021/03/11 02:04:05;;;;;;;43.42;26.73;;;;;;;-5.27;67.48;101327.73;1808109;78;21049;-54
2021/03/11 02:06:45;;;;;;;46.65;27.70;;;;;;;-5.28;67.64;101312.14;1773812;79;28620;-54
2021/03/11 02:09:20;;;;;;;43.70;25.23;;;;;;;-5.36;67.80;101322.73;1747402;82;21046;-53
2021/03/11 02:12:06;;;;;;;46.48;28.35;;;;;;;-5.40;67.98;101322.20;1747218;82;21403;-53
2021/03/11 02:15:03;;;;;;;51.42;29.55;;;;;;;-5.39;68.04;101323.03;1746830;82;21065;-53
2021/03/11 02:17:36;;;;;;;59.00;33.13;;;;;;;-5.36;68.13;101329.44;1746669;82;21058;-53
2021/03/11 02:20:35;;;;;;;66.40;37.93;;;;;;;-5.33;68.14;101327.83;1725707;82;21026;-53
2021/03/11 02:23:09;;;;;;;53.35;35.33;;;;;;;-5.29;68.14;101329.19;1739692;82;21596;-53
2021/03/11 02:26:13;;;;;;;61.20;34.78;;;;;;;-5.27;68.18;101333.09;1747338;82;22282;-54
2021/03/11 02:28:58;;;;;;;66.28;38.45;;;;;;;-5.28;68.24;101333.56;1747160;82;21025;-53
2021/03/11 02:31:27;;;;;;;58.80;36.80;;;;;;;-5.24;68.42;101336.30;1747129;82;21613;-54
2021/03/11 02:33:58;;;;;;;56.92;36.63;;;;;;;-5.19;68.33;101336.36;1746781;82;21045;-53
2021/03/11 02:36:27;;;;;;;62.45;35.58;;;;;;;-5.17;68.28;101335.70;1746511;82;21943;-53
2021/03/11 02:39:02;;;;;;;52.48;34.40;;;;;;;-5.17;68.33;101334.36;1746687;82;21054;-54
2021/03/11 02:41:36;;;;;;;63.38;36.33;;;;;;;-5.19;68.39;101348.41;1747037;81;21184;-53
2021/03/11 02:44:11;;;;;;;61.18;34.75;;;;;;;-5.13;68.41;101339.78;1845155;76;28303;-53
2021/03/11 02:46:41;;;;;;;52.20;33.23;;;;;;;-5.26;68.44;101338.77;1815387;79;21021;-53
2021/03/11 02:49:09;;;;;;;63.75;34.75;;;;;;;-5.30;68.64;101336.91;1815272;79;21281;-54
2021/03/11 02:51:37;;;;;;;57.10;35.08;;;;;;;-5.34;68.79;101342.20;1815343;79;21034;-53
2021/03/11 02:54:19;;;;;;;55.30;32.35;;;;;;;-5.34;68.89;101343.54;1810863;78;21413;-53
2021/03/11 02:56:48;;;;;;;55.85;31.65;;;;;;;-5.32;68.90;101344.73;1810417;79;21063;-53
2021/03/11 02:59:17;;;;;;;50.65;33.73;;;;;;;-5.28;68.86;101342.94;1784254;79;21047;-53
2021/03/11 03:01:46;;;;;;;64.60;40.78;;;;;;;-5.27;68.73;101343.30;1813479;79;22223;-53
2021/03/11 03:04:18;;;;;;;60.15;34.73;;;;;;;-5.25;68.80;101343.98;1801857;79;21178;-53
2021/03/11 03:06:46;;;;;;;65.55;36.15;;;;;;;-5.23;68.73;101347.38;1781308;80;21027;-54
2021/03/11 03:09:17;;;;;;;68.02;36.68;;;;;;;-5.22;68.64;101336.16;1781482;80;21355;-53
2021/03/11 03:11:45;;;;;;;58.15;35.48;;;;;;;-5.26;68.56;101338.30;1753316;80;21233;-53
2021/03/11 03:14:14;;;;;;;56.83;36.45;;;;;;;-5.28;68.66;101338.09;1781096;80;21384;-53
2021/03/11 03:16:47;;;;;;;52.27;32.85;;;;;;;-5.33;68.71;101335.86;1780806;80;21047;-53
2021/03/11 03:19:19;;;;;;;49.73;32.15;;;;;;;-5.38;68.79;101334.11;1781105;80;21071;-54
2021/03/11 03:21:47;;;;;;;59.08;32.85;;;;;;;-5.48;68.91;101322.59;1780862;80;21319;-54
2021/03/11 03:24:17;;;;;;;58.30;34.10;;;;;;;-5.57;69.07;101326.48;1781365;80;20999;-54
2021/03/11 03:26:45;;;;;;;54.98;31.25;;;;;;;-5.60;69.14;101329.93;1781461;80;22385;-54
2021/03/11 03:29:14;;;;;;;56.80;35.38;;;;;;;-5.63;69.26;101327.08;1780577;80;21981;-54
2021/03/11 03:31:43;;;;;;;60.58;30.70;;;;;;;-5.68;69.43;101330.67;1729349;80;21515;-54
2021/03/11 03:34:17;;;;;;;57.75;32.70;;;;;;;-5.71;69.51;101328.80;1780793;80;21043;-54
2021/03/11 03:36:58;;;;;;;63.58;31.68;;;;;;;-5.70;69.76;101329.98;1834103;78;28239;-53
2021/03/11 03:39:27;;;;;;;64.90;44.73;;;;;;;-5.76;69.83;101337.23;1806502;79;21026;-53
2021/03/11 03:41:59;;;;;;;62.48;39.95;;;;;;;-5.74;70.02;101340.62;1806707;79;21452;-54
2021/03/11 03:44:32;;;;;;;71.15;39.88;;;;;;;-5.70;70.04;101335.34;1806870;79;21025;-53
2021/03/11 03:47:07;;;;;;;66.20;36.30;;;;;;;-5.69;70.10;101339.67;1806484;79;22352;-53
2021/03/11 03:49:36;;;;;;;57.17;35.78;;;;;;;-5.67;70.08;101339.53;1806554;79;21042;-53
2021/03/11 03:52:04;;;;;;;61.10;32.90;;;;;;;-5.67;70.09;101344.88;1750412;79;21541;-53
2021/03/11 03:54:32;;;;;;;64.15;38.30;;;;;;;-5.73;70.18;101344.97;1725841;79;21286;-53
2021/03/11 03:57:16;;;;;;;57.25;36.60;;;;;;;-5.78;70.27;101344.57;1806588;79;21034;-53
2021/03/11 03:59:51;;;;;;;65.80;35.48;;;;;;;-5.80;70.44;101339.84;1806576;79;21524;-55
2021/03/11 04:02:27;;;;;;;58.50;34.88;;;;;;;-5.83;70.50;101340.12;1806764;79;21018;-55
2021/03/11 04:04:57;;;;;;;56.70;32.60;;;;;;;-5.86;70.59;101341.77;1786298;79;21632;-55
2021/03/11 04:07:27;;;;;;;56.23;33.85;;;;;;;-5.86;70.71;101341.77;1774985;80;22037;-55
2021/03/11 04:09:56;;;;;;;54.00;33.23;;;;;;;-5.90;70.80;101343.39;1774772;80;21019;-55
2021/03/11 04:12:24;;;;;;;53.50;31.30;;;;;;;-5.86;70.96;101344.44;1774616;80;21014;-53
2021/03/11 04:17:33;;;;;;;60.60;34.48;;;;;;;-5.84;71.05;101350.50;1774321;78;28302;-53
2021/03/11 04:20:05;;;;;;;64.07;33.00;;;;;;;-5.88;71.14;101352.61;1740486;82;21010;-53
2021/03/11 04:22:34;;;;;;;64.92;34.65;;;;;;;-5.82;71.25;101357.88;1747391;81;21200;-54
2021/03/11 04:25:06;;;;;;;60.73;33.42;;;;;;;-5.78;71.05;101359.29;1746981;82;21061;-55
2021/03/11 04:27:39;;;;;;;72.03;33.88;;;;;;;-5.75;71.09;101354.98;1747267;82;22121;-54
2021/03/11 04:30:13;;;;;;;58.08;32.17;;;;;;;-5.77;71.04;101343.59;1747008;82;21066;-55
2021/03/11 04:32:43;;;;;;;69.20;33.00;;;;;;;-5.80;71.05;101345.19;1747408;82;21034;-54
2021/03/11 04:35:21;;;;;;;64.75;34.55;;;;;;;-5.81;71.28;101343.52;1747120;82;21204;-55
2021/03/11 04:37:51;;;;;;;61.18;35.48;;;;;;;-5.79;71.31;101343.70;1746986;82;21058;-54
2021/03/11 04:40:20;;;;;;;68.05;32.35;;;;;;;-5.75;71.44;101348.30;1745620;82;21561;-54
2021/03/11 04:42:47;;;;;;;65.85;35.13;;;;;;;-5.70;71.44;101356.75;1683576;85;21102;-55
2021/03/11 04:45:15;;;;;;;60.45;33.00;;;;;;;-5.66;71.45;101355.95;1712351;83;21058;-55
2021/03/11 04:47:45;;;;;;;69.82;33.92;;;;;;;-5.61;71.45;101349.17;1683846;85;21426;-55
2021/03/11 04:50:14;;;;;;;64.70;36.40;;;;;;;-5.56;71.51;101352.27;1683697;85;21125;-53
2021/03/11 04:52:46;;;;;;;66.35;34.30;;;;;;;-5.48;71.48;101350.20;1683140;85;21090;-53
2021/03/11 04:55:16;;;;;;;74.03;36.83;;;;;;;-5.39;71.41;101353.36;1683426;85;21684;-53
2021/03/11 04:57:46;;;;;;;66.02;37.93;;;;;;;-5.27;71.33;101359.88;1683726;84;21062;-54
2021/03/11 05:00:17;;;;;;;78.42;44.45;;;;;;;-5.16;71.15;101365.53;1683577;84;21805;-56
2021/03/11 05:02:46;;;;;;;69.53;39.38;;;;;;;-5.05;70.89;101362.66;1683826;84;21094;-53
2021/03/11 05:05:32;;;;;;;84.60;43.58;;;;;;;-4.94;70.57;101361.13;1689551;83;21699;-53
2021/03/11 05:08:31;;;;;;;96.30;47.55;;;;;;;-4.78;70.18;101362.33;1794947;79;28287;-54
2021/03/11 05:11:08;;;;;;;80.67;43.83;;;;;;;-4.81;70.01;101367.48;1757979;80;21179;-55
2021/03/11 05:13:34;;;;;;;96.97;57.55;;;;;;;-4.76;69.88;101363.88;1771587;79;21211;-53
2021/03/11 05:16:02;;;;;;;92.55;51.05;;;;;;;-4.71;69.78;101359.39;1774646;80;20994;-54
2021/03/11 05:18:31;;;;;;;78.45;45.58;;;;;;;-4.64;69.65;101360.48;1720694;82;21919;-53
2021/03/11 05:21:01;;;;;;;89.22;49.27;;;;;;;-4.62;69.51;101361.16;1748270;81;21022;-52
2021/03/11 05:23:31;;;;;;;95.70;56.05;;;;;;;-4.58;69.56;101355.84;1744314;81;21083;-54
2021/03/11 05:26:10;;;;;;;91.95;59.95;;;;;;;-4.52;69.35;101356.57;1692530;82;21235;-53
2021/03/11 05:28:35;;;;;;;103.78;53.95;;;;;;;-4.45;69.22;101362.18;1692393;82;22292;-53
2021/03/11 05:31:04;;;;;;;98.62;54.58;;;;;;;-4.34;69.21;101363.30;1700956;82;21038;-53
2021/03/11 05:33:32;;;;;;;98.62;53.78;;;;;;;-4.17;68.95;101368.33;1741780;81;21057;-53
2021/03/11 05:36:06;;;;;;;82.67;50.10;;;;;;;-4.06;68.53;101374.45;1735947;81;21133;-53
2021/03/11 05:38:33;;;;;;;104.90;54.40;;;;;;;-4.00;68.28;101376.55;1747759;81;22461;-53
2021/03/11 05:41:04;;;;;;;88.72;50.38;;;;;;;-3.93;68.15;101378.95;1727237;82;21191;-53
2021/03/11 05:43:34;;;;;;;95.53;51.58;;;;;;;-3.88;68.06;101378.48;1727485;82;21207;-53
2021/03/11 05:46:09;;;;;;;87.88;46.75;;;;;;;-3.77;68.04;101384.09;1727169;82;21109;-53
2021/03/11 05:48:42;;;;;;;85.45;48.95;;;;;;;-3.67;67.75;101384.87;1727607;82;21111;-53
2021/03/11 05:51:19;;;;;;;87.85;50.15;;;;;;;-3.59;67.52;101384.91;1726442;82;21604;-54
2021/03/11 05:53:52;;;;;;;86.20;46.18;;;;;;;-3.48;67.37;101387.34;1726891;82;21175;-54
2021/03/11 05:56:31;;;;;;;87.80;44.03;;;;;;;-3.26;66.96;101377.06;1834507;78;28370;-54
2021/03/11 05:59:02;;;;;;;71.15;31.15;;;;;;;-3.18;66.44;101381.14;1806601;79;21025;-55
2021/03/11 06:01:34;;;;;;;66.05;28.50;;;;;;;-3.06;65.67;101381.70;1806837;79;21390;-54
2021/03/11 06:04:08;;;;;;;61.98;24.57;;;;;;;-2.96;64.83;101382.94;1794927;79;21018;-54
2021/03/11 06:06:37;;;;;;;41.60;17.82;;;;;;;-2.90;63.95;101389.03;1774434;80;21085;-54
2021/03/11 06:09:12;;;;;;;25.60;15.38;;;;;;;-2.83;62.69;101391.41;1774578;80;21046;-54
2021/03/11 06:11:42;;;;;;;36.93;16.00;;;;;;;-2.74;60.88;101386.05;1774930;80;21176;-55
2021/03/11 06:14:11;;;;;;;27.50;12.90;;;;;;;-2.70;59.75;101392.31;1720848;80;22764;-54
2021/03/11 06:16:49;;;;;;;19.55;12.10;;;;;;;-2.66;58.01;101387.43;1774942;80;21053;-54
2021/03/11 06:19:20;;;;;;;25.82;15.65;;;;;;;-2.66;55.43;101392.33;1770215;80;21074;-55
2021/03/11 06:21:52;;;;;;;27.80;13.53;;;;;;;-2.67;55.45;101396.02;1774682;80;20982;-55
2021/03/11 06:24:24;;;;;;;27.55;14.60;;;;;;;-2.62;54.88;101395.52;1775288;80;21054;-55
2021/03/11 06:26:52;;;;;;;30.97;14.98;;;;;;;-2.53;54.72;101397.25;1774392;80;23599;-55
2021/03/11 06:29:41;;;;;;;36.05;17.42;;;;;;;-2.40;54.50;101402.64;1774671;80;21053;-55
2021/03/11 06:32:09;;;;;;;31.37;15.98;;;;;;;-2.29;53.96;101403.20;1774896;80;21002;-54
2021/03/11 06:34:42;;;;;;;30.12;14.68;;;;;;;-2.17;53.34;101406.90;1774775;80;21646;-55
2021/03/11 06:37:16;;;;;;;36.20;14.18;;;;;;;-2.12;52.58;101414.81;1774640;80;22226;-53
2021/03/11 06:39:45;;;;;;;33.98;14.40;;;;;;;-2.00;52.63;101421.23;1774842;80;21277;-53
2021/03/11 06:42:18;;;;;;;36.58;16.00;;;;;;;-1.86;51.70;101413.84;1774757;80;21034;-54
2021/03/11 06:44:51;;;;;;;28.85;14.68;;;;;;;-1.79;51.61;101416.20;1721354;80;21076;-55
2021/03/11 06:47:21;;;;;;;38.88;15.30;;;;;;;-1.65;50.81;101411.17;1774929;80;21073;-55
2021/03/11 06:49:59;;;;;;;23.92;13.58;;;;;;;-1.62;50.04;101406.80;1745920;80;21611;-55
2021/03/11 06:55:15;;;;;;;25.05;15.18;;;;;;;-1.69;48.96;101405.27;1840700;76;28784;-54
2021/03/11 06:57:44;;;;;;;29.50;14.75;;;;;;;-1.76;49.03;101425.81;1744293;82;21094;-55
2021/03/11 07:00:20;;;;;;;38.35;18.52;;;;;;;-1.73;48.86;101421.42;1761859;81;21390;-54
2021/03/11 07:02:57;;;;;;;36.25;16.48;;;;;;;-1.63;49.13;101415.39;1743966;82;21724;-54
2021/03/11 07:05:27;;;;;;;35.00;14.55;;;;;;;-1.52;48.72;101422.80;1732832;81;21081;-54
2021/03/11 07:08:18;;;;;;;24.80;14.78;;;;;;;-1.50;48.34;101424.31;1731957;82;21081;-54
2021/03/11 07:10:47;;;;;;;33.65;15.45;;;;;;;-1.52;48.04;101433.05;1731777;82;21122;-55
2021/03/11 07:13:41;;;;;;;29.77;14.87;;;;;;;-1.53;48.41;101417.89;1834483;78;28582;-55
2021/03/11 07:16:15;;;;;;;28.55;15.75;;;;;;;-1.55;48.17;101413.70;1806889;79;20982;-55
2021/03/11 07:18:47;;;;;;;23.45;14.05;;;;;;;-1.50;47.92;101417.58;1806608;79;21013;-55
2021/03/11 07:21:42;;;;;;;31.52;15.65;;;;;;;-1.52;47.92;101418.75;1806543;79;21675;-55
2021/03/11 07:24:11;;;;;;;27.85;15.23;;;;;;;-1.51;48.12;101417.23;1797810;79;21057;-55
2021/03/11 07:26:40;;;;;;;41.70;14.28;;;;;;;-1.47;47.93;101418.58;1806558;79;21045;-55
2021/03/11 07:29:21;;;;;;;30.17;14.58;;;;;;;-1.40;47.98;101424.11;1767418;79;21053;-55
2021/03/11 07:32:00;;;;;;;27.90;14.53;;;;;;;-1.30;48.23;101425.28;1795909;77;21243;-56
2021/03/11 07:34:37;;;;;;;28.05;14.15;;;;;;;-1.13;48.01;101431.01;1798862;77;21096;-55
2021/03/11 07:37:07;;;;;;;29.92;15.38;;;;;;;-1.00;47.78;101437.70;1758263;79;20997;-55
2021/03/11 07:39:42;;;;;;;26.80;16.45;;;;;;;-0.90;47.96;101424.38;1723408;82;20991;-56
2021/03/11 07:42:12;;;;;;;24.63;15.83;;;;;;;-0.73;47.57;101432.40;1730296;81;21014;-55
2021/03/11 07:44:45;;;;;;;25.60;13.98;;;;;;;-0.64;46.72;101427.81;1747864;81;22227;-55
2021/03/11 07:47:13;;;;;;;24.98;15.45;;;;;;;-0.61;46.42;101432.88;1738334;80;21074;-56
2021/03/11 07:49:46;;;;;;;19.82;13.48;;;;;;;-0.54;46.50;101427.12;1696465;82;21038;-56
2021/03/11 07:52:14;;;;;;;21.57;13.40;;;;;;;-0.49;45.97;101436.86;1711335;82;21061;-55
2021/03/11 07:54:46;;;;;;;24.60;14.78;;;;;;;-0.43;46.20;101428.57;1711081;83;21022;-55
2021/03/11 07:57:14;;;;;;;24.02;13.78;;;;;;;-0.36;45.80;101430.41;1724297;81;22465;-54
2021/03/11 07:59:44;;;;;;;23.27;15.63;;;;;;;-0.33;45.31;101424.31;1736984;80;21650;-56
2021/03/11 08:02:16;;;;;;;36.60;15.83;;;;;;;-0.31;45.39;101419.59;1710659;83;21046;-54
2021/03/11 08:04:45;;;;;;;27.75;15.85;;;;;;;-0.28;45.27;101421.93;1678642;84;21054;-55
2021/03/11 08:07:21;;;;;;;20.82;13.68;;;;;;;-0.27;45.62;101425.80;1726439;81;21050;-55
2021/03/11 08:09:54;;;;;;;25.12;13.50;;;;;;;-0.12;45.61;101419.12;1759917;81;21381;-55
2021/03/11 08:12:42;;;;;;;28.17;15.53;;;;;;;0.02;45.16;101418.04;1741296;81;21020;-56
2021/03/11 08:15:20;;;;;;;20.97;13.50;;;;;;;0.14;44.77;101417.44;1753702;81;21044;-55
2021/03/11 08:17:51;;;;;;;35.25;13.55;;;;;;;0.22;44.01;101419.75;1767502;79;21049;-56
2021/03/11 08:20:33;;;;;;;19.82;12.65;;;;;;;0.12;43.78;101404.61;1764938;81;20993;-53
2021/03/11 08:23:02;;;;;;;24.45;13.72;;;;;;;0.20;44.47;101407.78;1736522;81;21454;-56
2021/03/11 08:25:40;;;;;;;33.33;16.12;;;;;;;0.37;44.26;101407.63;1736042;81;20989;-56
2021/03/11 08:28:20;;;;;;;26.23;13.20;;;;;;;0.57;43.89;101397.98;1734689;81;21234;-56
2021/03/11 08:30:55;;;;;;;23.07;13.03;;;;;;;0.72;42.31;101410.19;1725421;80;21091;-56
2021/03/11 08:33:31;;;;;;;22.22;11.75;;;;;;;0.69;42.40;101399.22;1755172;80;21076;-57
2021/03/11 08:36:14;;;;;;;24.72;11.53;;;;;;;0.83;42.35;101384.56;1764102;80;21352;-55
2021/03/11 08:38:41;;;;;;;27.02;11.95;;;;;;;1.08;41.68;101388.34;1766686;78;20992;-56
2021/03/11 08:41:13;;;;;;;28.30;10.72;;;;;;;1.25;41.54;101395.76;1762618;79;20986;-55
2021/03/11 08:43:50;;;;;;;20.20;10.58;;;;;;;1.40;40.56;101386.25;1756585;80;20981;-55
2021/03/11 08:46:49;;;;;;;28.70;11.78;;;;;;;1.51;39.91;101387.13;1752923;80;21027;-55
2021/03/11 08:49:41;;;;;;;20.40;11.60;;;;;;;1.44;39.99;101384.85;1753121;81;21337;-55
2021/03/11 08:52:37;;;;;;;18.17;10.30;;;;;;;1.53;40.51;101382.37;1732240;82;20969;-55
2021/03/11 08:55:33;;;;;;;21.12;9.55;;;;;;;1.90;39.83;101388.10;1841407;75;22805;-55
2021/03/11 08:58:02;;;;;;;12.37;8.83;;;;;;;2.01;38.38;101372.36;1758240;80;21014;-56
2021/03/11 09:01:02;;;;;;;26.00;10.82;;;;;;;2.16;38.14;101375.84;1776082;79;22065;-56
2021/03/11 09:03:47;;;;;;;16.48;8.60;;;;;;;2.38;37.30;101383.43;1855085;74;22041;-56
2021/03/11 09:06:16;;;;;;;15.48;8.95;;;;;;;2.28;37.50;101377.51;1807793;78;21721;-56
2021/03/11 09:08:50;;;;;;;19.07;9.95;;;;;;;2.42;37.13;101383.36;1804119;78;21606;-55
2021/03/11 09:11:22;;;;;;;17.92;11.20;;;;;;;2.56;36.78;101378.06;1807232;77;20970;-56
2021/03/11 09:13:51;;;;;;;14.53;9.90;;;;;;;2.70;37.14;101380.34;1771729;79;21664;-54
2021/03/11 09:16:27;;;;;;;21.48;14.33;;;;;;;2.82;37.10;101384.72;1747416;80;20958;-56
2021/03/11 09:18:55;;;;;;;18.73;10.98;;;;;;;2.96;36.98;101382.41;1760395;79;20989;-55
2021/03/11 09:21:36;;;;;;;19.80;11.12;;;;;;;3.09;36.08;101379.77;1745651;80;22065;-56
2021/03/11 09:24:04;;;;;;;15.88;10.28;;;;;;;3.02;36.15;101368.03;1738436;80;22250;-55
2021/03/11 09:26:35;;;;;;;25.12;12.68;;;;;;;3.02;36.32;101374.81;1740670;81;21024;-55
2021/03/11 09:29:06;;;;;;;19.20;11.73;;;;;;;3.11;36.75;101362.77;1738978;80;21690;-55
2021/03/11 09:31:34;;;;;;;17.85;11.20;;;;;;;3.49;35.66;101366.05;1747332;81;20990;-55
2021/03/11 09:34:04;;;;;;;20.65;11.10;;;;;;;3.66;35.73;101372.81;1732808;81;22199;-54
2021/03/11 09:36:32;;;;;;;27.20;11.65;;;;;;;3.84;35.21;101361.88;1736538;81;21004;-55
2021/03/11 09:39:07;;;;;;;20.85;12.73;;;;;;;4.02;35.65;101368.92;1741423;80;20982;-55
2021/03/11 09:41:39;;;;;;;19.57;12.50;;;;;;;4.20;35.22;101380.56;1738550;81;21591;-54
2021/03/11 09:44:07;;;;;;;21.20;12.95;;;;;;;4.22;35.14;101368.11;1737509;80;20970;-54
2021/03/11 09:46:35;;;;;;;19.87;11.63;;;;;;;4.41;35.17;101369.98;1738299;80;22637;-54
2021/03/11 09:49:05;;;;;;;19.50;12.78;;;;;;;4.66;34.23;101376.17;1734019;81;21042;-55
2021/03/11 09:51:34;;;;;;;22.17;11.90;;;;;;;4.79;34.40;101376.14;1739518;81;21588;-55
2021/03/11 09:54:04;;;;;;;22.02;12.20;;;;;;;5.11;34.20;101371.37;1739955;80;21705;-54
2021/03/11 09:56:41;;;;;;;16.25;11.68;;;;;;;5.38;33.95;101370.75;1734800;81;20994;-56
2021/03/11 09:59:14;;;;;;;23.55;11.75;;;;;;;5.38;33.00;101378.92;1736987;81;22271;-55
2021/03/11 10:01:45;;;;;;;54.53;24.27;;;;;;;5.13;33.44;101367.89;1740304;80;21008;-57
2021/03/11 10:04:19;;;;;;;27.40;10.43;;;;;;;5.28;33.45;101382.09;1738934;81;21021;-57
2021/03/11 10:06:59;;;;;;;28.30;14.63;;;;;;;5.42;32.82;101361.09;1733609;81;21551;-55
2021/03/11 10:09:43;;;;;;;80.55;33.28;;;;;;;5.52;32.45;101359.28;1861158;75;23939;-57
2021/03/11 10:12:13;;;;;;;87.33;38.55;;;;;;;5.45;32.92;101366.11;1832702;77;20922;-56
2021/03/11 10:14:43;;;;;;;156.90;60.83;;;;;;;5.56;32.96;101363.25;1826556;76;22293;-55
2021/03/11 10:17:26;;;;;;;62.60;24.67;;;;;;;5.86;32.87;101363.50;1829946;76;21004;-55
2021/03/11 10:20:00;;;;;;;38.50;15.05;;;;;;;6.20;31.78;101356.47;1825641;78;21018;-56
2021/03/11 10:22:31;;;;;;;19.87;9.55;;;;;;;6.30;31.29;101347.28;1813282;77;20988;-56
2021/03/11 10:25:00;;;;;;;39.35;17.62;;;;;;;6.35;30.71;101352.07;1832441;76;21574;-54
2021/03/11 10:27:36;;;;;;;18.02;10.15;;;;;;;6.33;31.32;101351.44;1807653;77;21495;-54
2021/03/11 10:30:30;;;;;;;14.40;9.40;;;;;;;6.51;30.69;101355.59;1828306;77;21577;-56
2021/03/11 10:33:04;;;;;;;23.20;12.23;;;;;;;6.47;30.47;101343.98;1829884;76;20994;-55
2021/03/11 10:35:37;;;;;;;22.17;9.70;;;;;;;6.49;31.06;101340.52;1824001;77;20983;-56
2021/03/11 10:38:19;;;;;;;66.35;24.63;;;;;;;6.74;30.54;101346.78;1824676;77;21003;-55
2021/03/11 10:40:51;;;;;;;212.75;97.35;;;;;;;7.01;30.29;101340.20;1831610;77;21573;-57
2021/03/11 10:43:31;;;;;;;62.05;27.45;;;;;;;7.35;30.25;101327.80;1804429;77;21659;-56
2021/03/11 10:45:56;;;;;;;33.70;15.72;;;;;;;7.78;28.99;101335.55;1832314;76;20926;-56
2021/03/11 10:48:23;;;;;;;25.72;14.87;;;;;;;7.69;28.81;101330.11;1832006;77;20970;-56
2021/03/11 10:50:53;;;;;;;72.12;29.77;;;;;;;7.63;28.84;101322.81;1832204;77;20965;-56
2021/03/11 10:53:42;;;;;;;17.98;9.58;;;;;;;7.73;29.16;101323.94;1831267;77;21202;-55
2021/03/11 10:56:19;;;;;;;54.45;27.65;;;;;;;7.86;28.61;101308.38;1826689;77;21009;-56
2021/03/11 10:58:49;;;;;;;76.30;35.73;;;;;;;8.05;28.27;101307.80;1832871;77;20983;-56
2021/03/11 11:01:25;;;;;;;41.50;17.45;;;;;;;8.15;28.24;101314.88;1772390;78;21916;-56
2021/03/11 11:03:55;;;;;;;23.02;12.15;;;;;;;8.32;27.11;101297.23;1828854;77;20930;-55
2021/03/11 11:06:24;;;;;;;101.58;51.28;;;;;;;8.22;27.61;101300.55;1836470;77;21367;-54
2021/03/11 11:08:55;;;;;;;78.95;37.88;;;;;;;8.44;28.33;101293.12;1817210;76;20997;-54
2021/03/11 11:11:29;;;;;;;44.50;19.90;;;;;;;8.75;27.40;101287.84;1810514;78;21013;-55
2021/03/11 11:13:58;;;;;;;30.68;13.13;;;;;;;8.67;27.35;101291.48;1802211;78;21360;-54
2021/03/11 11:16:26;;;;;;;30.05;11.78;;;;;;;8.18;27.05;101282.94;1802317;78;20985;-55
2021/03/11 11:18:58;;;;;;;57.25;23.98;;;;;;;7.53;28.00;101279.11;1808000;78;21385;-55
2021/03/11 11:21:28;;;;;;;34.00;14.35;;;;;;;7.38;28.71;101285.52;1807192;78;20961;-56
2021/03/11 11:23:59;;;;;;;31.95;17.02;;;;;;;7.60;28.69;101275.75;1803889;78;21658;-57
2021/03/11 11:26:26;;;;;;;26.65;14.63;;;;;;;8.00;27.83;101269.34;1814461;78;20973;-55
2021/03/11 11:28:58;;;;;;;15.30;9.50;;;;;;;8.35;27.69;101261.17;1807870;78;20962;-55
2021/03/11 11:31:27;;;;;;;17.82;9.23;;;;;;;8.57;26.56;101262.78;1806589;78;21360;-56
2021/03/11 11:34:06;;;;;;;51.58;21.02;;;;;;;8.59;26.72;101259.84;1799415;77;23193;-55
2021/03/11 11:36:37;;;;;;;33.02;13.13;;;;;;;8.56;27.00;101257.03;1715961;82;21062;-55
2021/03/11 11:39:06;;;;;;;19.82;11.20;;;;;;;8.60;26.89;101254.63;1744384;81;21615;-54
2021/03/11 11:41:38;;;;;;;14.40;8.25;;;;;;;8.52;27.21;101251.73;1711190;82;20960;-56
2021/03/11 11:44:07;;;;;;;30.97;15.53;;;;;;;8.51;26.47;101245.13;1712874;81;21003;-56
2021/03/11 11:46:34;;;;;;;22.65;11.30;;;;;;;8.38;26.90;101247.55;1728325;82;20951;-56
2021/03/11 11:49:04;;;;;;;28.50;13.20;;;;;;;8.53;27.13;101247.08;1726109;82;20990;-54